createdAt,value
2019-03-15T00:01:16.022Z,84.17
2019-03-15T00:06:11.930Z,84.12
2019-03-15T00:11:08.124Z,83.97
2019-03-15T00:16:04.188Z,83.95
2019-03-15T00:21:00.162Z,83.65
2019-03-15T00:25:56.137Z,83.76
2019-03-15T00:30:52.162Z,83.77
2019-03-15T00:35:48.080Z,84.10
2019-03-15T00:40:44.095Z,84.07
2019-03-15T00:45:40.008Z,84.48
2019-03-15T00:50:35.936Z,84.65
2019-03-15T00:55:31.864Z,84.73
2019-03-15T01:00:27.776Z,84.94
2019-03-15T01:05:23.677Z,85.30
2019-03-15T01:10:19.607Z,85.23
2019-03-15T01:15:15.541Z,84.93
2019-03-15T01:20:11.443Z,84.85
2019-03-15T01:25:08.167Z,84.84
2019-03-15T01:30:09.702Z,84.93
2019-03-15T01:35:06.923Z,84.60
2019-03-15T01:40:05.238Z,84.46
2019-03-15T01:45:01.276Z,84.06
2019-03-15T01:49:57.265Z,83.82
2019-03-15T01:54:53.818Z,83.90
2019-03-15T01:59:49.703Z,83.83
2019-03-15T02:04:45.789Z,83.82
2019-03-15T02:09:41.732Z,83.81
2019-03-15T02:14:37.652Z,83.68
2019-03-15T02:19:33.568Z,83.79
2019-03-15T02:24:31.143Z,83.68
2019-03-15T02:29:27.247Z,83.44
2019-03-15T02:34:23.452Z,83.33
2019-03-15T02:39:19.927Z,83.20
2019-03-15T02:44:16.199Z,83.17
2019-03-15T02:49:12.185Z,83.02
2019-03-15T02:54:18.937Z,82.75
2019-03-15T02:59:14.856Z,82.68
2019-03-15T03:04:10.782Z,82.48
2019-03-15T03:09:07.833Z,82.04
2019-03-15T03:14:04.459Z,81.65
2019-03-15T03:19:01.266Z,81.78
2019-03-15T03:23:59.048Z,81.31
2019-03-15T03:28:54.955Z,81.43
2019-03-15T03:33:50.891Z,81.40
2019-03-15T03:38:46.900Z,81.39
2019-03-15T03:43:42.831Z,81.72
2019-03-15T03:48:38.737Z,81.68
2019-03-15T03:53:34.750Z,81.87
2019-03-15T03:58:30.959Z,81.53
2019-03-15T04:03:26.865Z,81.52
2019-03-15T04:08:22.802Z,81.49
2019-03-15T04:13:18.682Z,81.63
2019-03-15T04:18:14.590Z,81.58
2019-03-15T04:23:10.581Z,81.67
2019-03-15T04:28:06.503Z,81.85
2019-03-15T04:33:02.509Z,81.57
2019-03-15T04:37:58.443Z,81.82
2019-03-15T04:42:54.469Z,81.93
2019-03-15T04:47:50.373Z,81.95
2019-03-15T04:52:46.282Z,82.10
2019-03-15T04:57:42.248Z,82.07
2019-03-15T05:02:38.152Z,82.05
2019-03-15T05:07:34.059Z,82.08
2019-03-15T05:12:29.969Z,82.13
2019-03-15T05:17:25.985Z,82.08
2019-03-15T05:22:21.907Z,81.86
2019-03-15T05:27:17.902Z,81.75
2019-03-15T05:32:13.804Z,81.81
2019-03-15T05:37:09.714Z,81.77
2019-03-15T05:42:05.651Z,81.79
2019-03-15T05:47:01.553Z,81.47
2019-03-15T05:51:57.561Z,81.48
2019-03-15T05:56:53.472Z,81.45
2019-03-15T06:01:49.459Z,81.42
2019-03-15T06:06:45.515Z,81.45
2019-03-15T06:11:41.565Z,81.39
2019-03-15T06:16:37.508Z,81.51
2019-03-15T06:21:33.451Z,81.79
2019-03-15T06:26:29.355Z,82.22
2019-03-15T06:31:25.319Z,83.20
2019-03-15T06:36:21.224Z,83.23
2019-03-15T06:41:17.132Z,83.57
2019-03-15T06:46:13.037Z,83.90
2019-03-15T06:51:09.359Z,84.09
2019-03-15T06:56:05.557Z,84.64
2019-03-15T07:01:01.482Z,84.89
2019-03-15T07:05:57.386Z,85.04
2019-03-15T07:10:53.297Z,85.25
2019-03-15T07:15:49.480Z,85.10
2019-03-15T07:20:46.642Z,84.71
2019-03-15T07:25:42.797Z,84.39
2019-03-15T07:30:38.789Z,84.22
2019-03-15T07:35:34.783Z,83.92
2019-03-15T07:40:30.708Z,83.68
2019-03-15T07:45:26.721Z,83.55
2019-03-15T07:50:24.173Z,83.72
2019-03-15T07:55:21.875Z,83.36
2019-03-15T08:00:17.922Z,83.94
2019-03-15T08:05:13.830Z,84.47
2019-03-15T08:10:13.017Z,85.13
2019-03-15T08:15:10.773Z,86.03
2019-03-15T08:20:11.117Z,86.22
2019-03-15T08:25:09.223Z,86.69
2019-03-15T08:30:11.918Z,87.38
2019-03-15T08:35:08.925Z,88.25
2019-03-15T08:40:07.637Z,88.59
2019-03-15T08:45:07.334Z,88.99
2019-03-15T08:50:06.553Z,88.97
2019-03-15T08:55:05.885Z,89.47
2019-03-15T09:00:11.956Z,89.76
2019-03-15T09:05:15.650Z,89.92
2019-03-15T09:10:22.731Z,89.62
2019-03-15T09:15:14.648Z,90.04
2019-03-15T09:20:15.121Z,90.35
2019-03-15T09:25:19.284Z,90.43
2019-03-15T09:30:23.300Z,90.62
2019-03-15T09:35:13.685Z,90.78
2019-03-15T09:40:17.462Z,90.79
2019-03-15T09:45:16.506Z,91.44
2019-03-15T09:50:21.777Z,92.02
2019-03-15T09:55:12.164Z,92.00
2019-03-15T10:00:15.078Z,92.39
2019-03-15T10:05:11.709Z,92.89
2019-03-15T10:10:13.774Z,93.22
2019-03-15T10:15:13.174Z,93.25
2019-03-15T10:20:12.737Z,93.75
2019-03-15T10:25:12.676Z,93.80
2019-03-15T10:30:14.681Z,94.17
2019-03-15T10:35:13.158Z,94.06
2019-03-15T10:40:17.702Z,94.14
2019-03-15T10:45:13.691Z,94.38
2019-03-15T10:50:15.148Z,94.22
2019-03-15T10:55:11.519Z,94.36
2019-03-15T11:00:18.676Z,94.91
2019-03-15T11:05:14.837Z,95.21
2019-03-15T11:10:12.033Z,95.60
2019-03-15T11:15:15.036Z,95.82
2019-03-15T11:20:11.869Z,96.07
2019-03-15T11:25:10.350Z,96.25
2019-03-15T11:30:10.128Z,96.38
2019-03-15T11:35:07.702Z,96.27
2019-03-15T11:40:25.600Z,96.26
2019-03-15T11:45:21.898Z,96.34
2019-03-15T11:50:19.104Z,96.36
2019-03-15T11:55:15.019Z,96.18
2019-03-15T12:00:18.046Z,95.70
2019-03-15T12:05:14.301Z,95.06
2019-03-15T12:10:11.661Z,94.16
2019-03-15T12:15:13.182Z,93.83
2019-03-15T12:20:10.269Z,92.99
2019-03-15T12:25:07.699Z,92.92
2019-03-15T12:30:28.802Z,91.82
2019-03-15T12:35:24.907Z,90.60
2019-03-15T12:40:20.945Z,89.56
2019-03-15T12:45:16.874Z,88.89
2019-03-15T12:50:13.699Z,87.60
2019-03-15T12:55:11.189Z,87.26
2019-03-15T13:00:16.096Z,87.25
2019-03-15T13:05:12.308Z,87.20
2019-03-15T13:10:14.958Z,87.58
2019-03-15T13:15:12.711Z,89.15
2019-03-15T13:20:11.607Z,90.88
2019-03-15T13:25:09.238Z,91.90
2019-03-15T13:30:10.443Z,91.09
2019-03-15T13:35:07.073Z,89.70
2019-03-15T13:40:09.119Z,90.61
2019-03-15T13:45:12.338Z,91.13
2019-03-15T13:50:14.206Z,90.43
2019-03-15T13:55:11.805Z,91.10
2019-03-15T14:00:16.607Z,91.09
2019-03-15T14:05:12.667Z,91.41
2019-03-15T14:10:12.882Z,92.69
2019-03-15T14:15:12.015Z,93.02
2019-03-15T14:20:09.509Z,93.14
2019-03-15T14:25:21.494Z,92.31
2019-03-15T14:30:17.387Z,92.40
2019-03-15T14:35:13.308Z,92.25
2019-03-15T14:40:10.594Z,91.90
2019-03-15T14:45:08.829Z,91.65
2019-03-15T14:50:07.136Z,88.86
2019-03-15T14:55:15.478Z,91.51
2019-03-15T15:00:18.626Z,91.79
2019-03-15T15:05:14.659Z,91.82
2019-03-15T15:10:16.122Z,92.28
2019-03-15T15:15:13.439Z,91.30
2019-03-15T15:20:10.157Z,90.96
2019-03-15T15:25:13.795Z,89.65
2019-03-15T15:30:16.446Z,90.63
2019-03-15T15:35:12.920Z,89.01
2019-03-15T15:40:15.768Z,89.53
2019-03-15T15:45:12.356Z,89.44
2019-03-15T15:50:12.377Z,90.37
2019-03-15T15:55:15.362Z,90.85
2019-03-15T16:00:16.653Z,90.96
2019-03-15T16:05:12.901Z,91.06
2019-03-15T16:10:11.830Z,91.49
2019-03-15T16:15:20.692Z,91.66
2019-03-15T16:20:20.294Z,91.06
2019-03-15T16:25:17.578Z,90.10
2019-03-15T16:30:14.905Z,89.81
2019-03-15T16:35:14.937Z,88.88
2019-03-15T16:40:14.433Z,88.95
2019-03-15T16:45:38.480Z,88.67
2019-03-15T16:50:35.743Z,88.46
2019-03-15T16:55:34.854Z,87.41
2019-03-15T17:00:33.633Z,87.41
2019-03-15T17:05:33.218Z,86.14
2019-03-15T17:10:29.247Z,86.22
2019-03-15T17:15:26.601Z,85.33
2019-03-15T17:20:23.160Z,85.06
2019-03-15T17:25:23.788Z,85.29
2019-03-15T17:30:19.960Z,84.70
2019-03-15T17:35:18.509Z,82.84
2019-03-15T17:40:22.780Z,82.09
2019-03-15T17:45:18.909Z,81.89
2019-03-15T17:50:23.105Z,79.06
2019-03-15T17:55:24.552Z,77.35
2019-03-15T18:00:26.586Z,76.61
2019-03-15T18:05:22.670Z,76.99
2019-03-15T18:10:19.603Z,76.58
2019-03-15T18:15:15.575Z,75.63
2019-03-15T18:20:11.498Z,74.48
2019-03-15T18:25:16.120Z,72.78
2019-03-15T18:30:15.006Z,72.23
2019-03-15T18:35:15.055Z,72.23
2019-03-15T18:40:27.579Z,70.71
2019-03-15T18:45:27.706Z,69.49
2019-03-15T18:50:25.315Z,68.72
2019-03-15T18:55:23.246Z,68.46
2019-03-15T19:00:23.525Z,68.46
2019-03-15T19:05:19.599Z,67.25
2019-03-15T19:10:15.726Z,66.72
2019-03-15T19:15:13.370Z,66.54
2019-03-15T19:20:10.866Z,67.27
2019-03-15T19:25:10.911Z,68.24
2019-03-15T19:30:13.356Z,68.23
2019-03-15T19:35:09.455Z,67.54
2019-03-15T19:40:11.775Z,68.70
2019-03-15T19:45:10.103Z,68.39
2019-03-15T19:50:30.609Z,69.20
2019-03-15T19:55:27.222Z,68.66
2019-03-15T20:00:23.219Z,69.14
2019-03-15T20:05:19.226Z,70.11
2019-03-15T20:10:16.751Z,70.29
2019-03-15T20:15:14.084Z,70.89
2019-03-15T20:20:11.706Z,70.91
2019-03-15T20:25:13.798Z,71.37
2019-03-15T20:30:21.459Z,71.00
2019-03-15T20:35:15.422Z,70.45
2019-03-15T20:40:13.583Z,71.07
2019-03-15T20:45:21.153Z,70.75
2019-03-15T20:50:18.312Z,71.39
2019-03-15T20:55:16.921Z,70.67
2019-03-15T21:00:34.828Z,70.88
2019-03-15T21:05:20.990Z,71.13
2019-03-15T21:10:18.185Z,71.19
2019-03-15T21:15:19.004Z,70.92
2019-03-15T21:20:22.191Z,71.67
2019-03-15T21:25:17.273Z,70.64
2019-03-15T21:30:21.551Z,70.83
2019-03-15T21:35:17.464Z,70.01
2019-03-15T21:40:14.671Z,70.36
2019-03-15T21:45:10.934Z,70.69
2019-03-15T21:50:12.013Z,70.49
2019-03-15T21:55:07.962Z,70.37
2019-03-15T22:00:12.619Z,70.44
2019-03-15T22:05:09.454Z,70.11
2019-03-15T22:10:08.362Z,70.44
2019-03-15T22:15:07.510Z,70.42
2019-03-15T22:20:06.672Z,69.55
2019-03-15T22:25:04.491Z,69.58
2019-03-15T22:30:00.414Z,69.56
2019-03-15T22:34:56.318Z,69.87
2019-03-15T22:39:52.234Z,69.69
2019-03-15T22:44:48.171Z,69.95
2019-03-15T22:49:44.084Z,70.38
2019-03-15T22:54:40.811Z,70.28
2019-03-15T22:59:36.676Z,70.44
2019-03-15T23:04:32.620Z,71.43
2019-03-15T23:09:28.654Z,71.26
2019-03-15T23:14:24.598Z,71.94
2019-03-15T23:19:20.589Z,72.33
2019-03-15T23:24:21.691Z,72.30
2019-03-15T23:29:17.704Z,73.18
2019-03-15T23:34:13.608Z,73.04
2019-03-15T23:39:09.518Z,72.94
2019-03-15T23:44:05.477Z,72.64
2019-03-15T23:49:01.384Z,72.38
2019-03-15T23:54:04.437Z,72.03
2019-03-15T23:59:00.445Z,71.73
